createdAt,value
2022-09-20T00:01:36.013Z,76.29
2022-09-20T00:04:06.984Z,75.37
2022-09-20T00:06:35.468Z,74.73
2022-09-20T00:09:04.056Z,75.63
2022-09-20T00:11:35.425Z,75.95
2022-09-20T00:14:08.459Z,73.31
2022-09-20T00:16:39.806Z,74.18
2022-09-20T00:19:09.080Z,75.66
2022-09-20T00:21:37.830Z,76.22
2022-09-20T00:24:06.115Z,76.21
2022-09-20T00:26:34.107Z,76.23
2022-09-20T00:29:01.722Z,76.47
2022-09-20T00:31:29.843Z,76.53
2022-09-20T00:34:17.361Z,76.75
2022-09-20T00:36:45.744Z,74.89
2022-09-20T00:39:16.165Z,75.55
2022-09-20T00:41:45.289Z,75.61
2022-09-20T00:44:42.779Z,75.93
2022-09-20T00:47:43.808Z,75.94
2022-09-20T00:50:36.215Z,76.10
2022-09-20T00:53:26.557Z,75.22
2022-09-20T00:56:09.899Z,75.36
2022-09-20T00:58:44.180Z,76.14
2022-09-20T01:01:12.081Z,75.11
2022-09-20T01:03:42.239Z,74.70
2022-09-20T01:06:15.403Z,75.52
2022-09-20T01:08:49.695Z,76.25
2022-09-20T01:11:19.211Z,76.79
2022-09-20T01:13:46.899Z,76.95
2022-09-20T01:16:17.344Z,77.66
2022-09-20T01:18:46.287Z,78.65
2022-09-20T01:21:15.170Z,79.54
2022-09-20T01:24:31.125Z,80.76
2022-09-20T01:27:22.451Z,81.78
2022-09-20T01:30:28.999Z,82.00
2022-09-20T01:33:18.754Z,83.48
2022-09-20T01:35:50.235Z,83.11
2022-09-20T01:38:27.791Z,83.80
2022-09-20T01:41:01.802Z,83.30
2022-09-20T01:43:46.498Z,82.91
2022-09-20T01:46:33.618Z,81.32
2022-09-20T01:49:21.146Z,81.00
2022-09-20T01:52:03.006Z,81.71
2022-09-20T01:54:47.393Z,80.86
2022-09-20T01:57:57.875Z,81.89
2022-09-20T02:00:35.069Z,82.82
2022-09-20T02:03:29.306Z,82.33
2022-09-20T02:06:22.514Z,82.17
2022-09-20T02:09:20.524Z,82.66
2022-09-20T02:12:18.349Z,82.05
2022-09-20T02:15:34.044Z,82.69
2022-09-20T02:18:14.123Z,81.70
2022-09-20T02:21:01.676Z,81.60
2022-09-20T02:24:00.651Z,81.19
2022-09-20T02:26:59.284Z,81.64
2022-09-20T02:30:34.720Z,81.89
2022-09-20T02:33:17.100Z,82.13
2022-09-20T02:36:24.816Z,81.35
2022-09-20T02:39:08.459Z,81.96
2022-09-20T02:42:05.336Z,82.26
2022-09-20T02:44:54.678Z,82.42
2022-09-20T02:47:40.227Z,81.86
2022-09-20T02:50:45.581Z,78.98
2022-09-20T02:53:45.765Z,79.01
2022-09-20T02:56:29.974Z,79.19
2022-09-20T02:59:15.576Z,77.32
2022-09-20T03:02:10.947Z,79.18
2022-09-20T03:05:09.709Z,79.82
2022-09-20T03:08:18.794Z,77.49
2022-09-20T03:11:31.905Z,78.48
2022-09-20T03:14:16.119Z,78.12
2022-09-20T03:17:05.098Z,78.45
2022-09-20T03:20:09.508Z,78.12
2022-09-20T03:22:41.685Z,77.79
2022-09-20T03:25:47.081Z,78.04
2022-09-20T03:28:41.847Z,78.46
2022-09-20T03:31:26.951Z,78.47
2022-09-20T03:34:10.169Z,78.06
2022-09-20T03:37:34.525Z,78.44
2022-09-20T03:40:40.775Z,77.51
2022-09-20T03:43:43.888Z,76.07
2022-09-20T03:46:27.020Z,76.60
2022-09-20T03:49:40.369Z,76.24
2022-09-20T03:52:19.737Z,76.80
2022-09-20T03:55:41.389Z,76.31
2022-09-20T03:58:28.142Z,76.04
2022-09-20T04:01:46.559Z,76.10
2022-09-20T04:04:25.705Z,76.07
2022-09-20T04:07:23.839Z,75.68
2022-09-20T04:10:18.832Z,75.58
2022-09-20T04:13:16.771Z,75.70
2022-09-20T04:16:12.806Z,75.71
2022-09-20T04:19:12.601Z,75.52
2022-09-20T04:22:05.682Z,73.75
2022-09-20T04:25:20.067Z,74.50
2022-09-20T04:28:00.136Z,74.14
2022-09-20T04:30:31.972Z,74.22
2022-09-20T04:33:29.997Z,75.26
2022-09-20T04:36:54.699Z,73.63
2022-09-20T04:40:06.319Z,73.45
2022-09-20T05:00:22.079Z,77.85
2022-09-20T05:03:32.208Z,78.06
2022-09-20T05:06:38.313Z,78.53
2022-09-20T05:09:29.824Z,78.08
2022-09-20T05:15:41.432Z,78.91
2022-09-20T05:18:26.507Z,79.63
2022-09-20T05:21:35.328Z,79.59
2022-09-20T05:24:32.043Z,79.55
2022-09-20T05:27:17.693Z,78.15
2022-09-20T05:30:38.142Z,78.47
2022-09-20T05:33:52.276Z,79.00
2022-09-20T05:36:41.676Z,79.12
2022-09-20T05:39:49.763Z,78.85
2022-09-20T05:43:01.213Z,78.40
2022-09-20T05:45:57.201Z,77.23
2022-09-20T05:48:28.080Z,77.00
2022-09-20T05:51:31.756Z,76.56
2022-09-20T05:54:54.786Z,75.99
2022-09-20T05:58:05.186Z,74.94
2022-09-20T06:01:07.223Z,75.34
2022-09-20T06:03:46.603Z,76.42
2022-09-20T06:06:40.005Z,76.63
2022-09-20T06:09:36.148Z,76.08
2022-09-20T06:12:16.397Z,75.24
2022-09-20T06:15:13.775Z,76.59
2022-09-20T06:18:00.098Z,76.67
2022-09-20T06:20:48.919Z,75.08
2022-09-20T06:23:18.408Z,76.11
2022-09-20T06:25:57.358Z,76.64
2022-09-20T06:28:34.279Z,77.16
2022-09-20T06:31:07.392Z,77.83
2022-09-20T06:33:45.347Z,77.90
2022-09-20T06:36:53.572Z,77.53
2022-09-20T06:39:59.081Z,78.12
2022-09-20T06:42:27.577Z,78.42
2022-09-20T06:44:55.839Z,78.15
2022-09-20T06:47:23.448Z,79.06
2022-09-20T06:49:50.916Z,78.91
2022-09-20T06:52:22.825Z,79.42
2022-09-20T06:54:54.375Z,79.31
2022-09-20T06:57:38.002Z,79.85
2022-09-20T07:00:10.309Z,79.15
2022-09-20T07:02:38.623Z,79.73
2022-09-20T07:05:07.558Z,79.26
2022-09-20T07:07:35.019Z,78.23
2022-09-20T07:10:04.255Z,78.66
2022-09-20T07:12:34.125Z,78.88
2022-09-20T07:15:01.607Z,78.14
2022-09-20T07:17:29.362Z,79.14
2022-09-20T07:19:57.195Z,79.61
2022-09-20T07:22:24.665Z,79.05
2022-09-20T07:24:52.861Z,78.26
2022-09-20T07:27:21.325Z,78.32
2022-09-20T07:29:48.800Z,78.51
2022-09-20T07:32:17.862Z,77.11
2022-09-20T07:34:45.913Z,76.76
2022-09-20T07:37:14.045Z,76.20
2022-09-20T07:39:41.998Z,76.07
2022-09-20T07:42:09.493Z,76.73
2022-09-20T07:44:37.234Z,75.83
2022-09-20T07:47:06.433Z,73.56
2022-09-20T07:49:34.106Z,75.37
2022-09-20T07:52:02.578Z,76.33
2022-09-20T07:54:30.524Z,75.66
2022-09-20T07:56:58.036Z,75.31
2022-09-20T07:59:26.014Z,74.73
2022-09-20T08:01:53.866Z,75.30
2022-09-20T08:04:21.507Z,75.54
2022-09-20T08:06:49.077Z,74.57
2022-09-20T08:09:16.849Z,74.81
2022-09-20T08:11:44.657Z,75.82
2022-09-20T08:14:17.864Z,75.27
2022-09-20T08:16:50.576Z,74.16
2022-09-20T08:19:23.387Z,73.68
2022-09-20T08:21:53.978Z,72.52
2022-09-20T08:24:23.966Z,71.25
2022-09-20T08:26:52.124Z,69.64
2022-09-20T08:29:19.746Z,70.62
2022-09-20T08:31:48.151Z,70.90
2022-09-20T08:34:17.731Z,70.33
2022-09-20T08:36:47.225Z,69.67
2022-09-20T08:42:15.650Z,68.09
2022-09-20T08:45:01.550Z,68.07
2022-09-20T08:47:35.417Z,68.16
2022-09-20T08:50:10.132Z,65.13
2022-09-20T08:52:40.698Z,64.82
2022-09-20T08:55:20.630Z,64.13
2022-09-20T08:57:55.496Z,65.41
2022-09-20T09:00:33.354Z,65.56
2022-09-20T09:03:14.348Z,64.15
2022-09-20T09:05:46.592Z,62.53
2022-09-20T09:08:18.041Z,64.40
2022-09-20T09:10:59.851Z,62.17
2022-09-20T09:13:34.745Z,61.33
2022-09-20T09:16:12.256Z,61.12
2022-09-20T09:18:43.545Z,61.67
2022-09-20T09:21:27.034Z,62.20
2022-09-20T09:24:19.749Z,61.89
2022-09-20T09:26:47.514Z,61.24
2022-09-20T09:29:24.677Z,59.50
2022-09-20T09:31:56.761Z,59.06
2022-09-20T09:34:38.770Z,58.62
2022-09-20T09:37:25.146Z,59.06
2022-09-20T09:40:24.745Z,60.04
2022-09-20T09:42:56.936Z,58.99
2022-09-20T09:45:38.765Z,58.71
2022-09-20T09:48:28.549Z,58.47
2022-09-20T09:51:23.590Z,58.08
2022-09-20T09:53:52.693Z,56.87
2022-09-20T09:56:35.476Z,56.13
2022-09-20T09:59:30.067Z,57.45
2022-09-20T10:02:28.890Z,55.73
2022-09-20T10:05:33.142Z,55.55
2022-09-20T10:08:40.282Z,54.37
2022-09-20T10:11:48.061Z,55.68
2022-09-20T10:14:46.382Z,55.71
2022-09-20T10:17:25.797Z,56.40
2022-09-20T10:20:01.979Z,56.69
2022-09-20T10:26:45.852Z,57.43
2022-09-20T10:29:36.995Z,57.50
2022-09-20T10:32:19.846Z,57.14
2022-09-20T10:35:20.879Z,56.77
2022-09-20T10:38:14.710Z,56.37
2022-09-20T10:41:25.405Z,56.99
2022-09-20T10:44:18.895Z,55.77
2022-09-20T10:47:00.713Z,55.27
2022-09-20T10:49:40.874Z,54.25
2022-09-20T10:52:51.987Z,53.22
2022-09-20T10:56:08.196Z,52.33
2022-09-20T10:58:49.177Z,53.21
2022-09-20T11:01:32.055Z,51.99
2022-09-20T11:04:24.318Z,51.69
2022-09-20T11:07:13.139Z,50.27
2022-09-20T11:09:56.245Z,48.46
2022-09-20T11:12:42.543Z,48.42
2022-09-20T11:15:30.429Z,48.46
2022-09-20T11:18:23.230Z,48.57
2022-09-20T11:21:21.974Z,48.69
2022-09-20T11:23:58.667Z,47.98
2022-09-20T11:26:44.197Z,45.95
2022-09-20T11:29:58.748Z,46.91
2022-09-20T11:32:37.577Z,45.64
2022-09-20T11:35:11.413Z,45.44
2022-09-20T11:37:46.611Z,45.01
2022-09-20T11:40:28.508Z,46.10
2022-09-20T11:43:00.372Z,45.49
2022-09-20T11:45:30.114Z,45.58
2022-09-20T11:48:25.923Z,44.93
2022-09-20T11:51:45.413Z,45.96
2022-09-20T11:54:55.753Z,46.98
2022-09-20T11:57:24.655Z,47.31
2022-09-20T11:59:57.231Z,48.40
2022-09-20T12:02:53.974Z,49.97
2022-09-20T12:05:38.208Z,49.19
2022-09-20T12:08:26.072Z,46.12
2022-09-20T12:11:14.106Z,47.65
2022-09-20T12:13:58.204Z,45.25
2022-09-20T12:16:46.225Z,44.26
2022-09-20T12:19:34.423Z,44.60
2022-09-20T12:22:03.813Z,44.64
2022-09-20T12:24:43.183Z,46.51
2022-09-20T12:27:29.437Z,52.30
2022-09-20T12:30:20.954Z,51.31
2022-09-20T12:32:58.453Z,53.75
2022-09-20T12:35:44.528Z,56.33
2022-09-20T12:38:28.936Z,60.47
2022-09-20T12:41:09.071Z,64.56
2022-09-20T12:44:18.619Z,66.41
2022-09-20T12:47:17.520Z,66.05
2022-09-20T12:50:06.728Z,67.23
2022-09-20T12:52:58.531Z,68.06
2022-09-20T12:55:47.287Z,70.49
2022-09-20T12:58:14.928Z,67.81
2022-09-20T13:01:00.604Z,67.76
2022-09-20T13:03:37.400Z,65.74
2022-09-20T13:06:08.863Z,59.13
2022-09-20T13:08:55.463Z,53.97
2022-09-20T13:11:48.951Z,51.43
2022-09-20T13:14:22.717Z,50.90
2022-09-20T13:17:06.834Z,52.27
2022-09-20T13:19:41.343Z,52.19
2022-09-20T13:22:30.385Z,52.84
2022-09-20T13:25:03.350Z,55.23
2022-09-20T13:28:26.583Z,55.71
2022-09-20T13:31:22.274Z,52.58
2022-09-20T13:33:50.392Z,54.93
2022-09-20T13:36:30.315Z,59.60
2022-09-20T13:38:59.684Z,52.77
2022-09-20T13:41:32.569Z,51.37
2022-09-20T13:44:01.572Z,47.58
2022-09-20T13:46:33.086Z,47.25
2022-09-20T13:49:23.749Z,46.46
2022-09-20T13:51:52.155Z,46.33
2022-09-20T13:54:32.353Z,45.92
2022-09-20T13:57:12.564Z,45.33
2022-09-20T13:59:47.767Z,46.57
2022-09-20T14:02:31.604Z,47.98
2022-09-20T14:05:06.000Z,47.84
2022-09-20T14:07:36.613Z,46.79
2022-09-20T14:10:25.345Z,47.84
2022-09-20T14:12:54.672Z,48.53
2022-09-20T14:15:22.783Z,50.47
2022-09-20T14:17:53.295Z,52.62
2022-09-20T14:20:21.290Z,53.27
2022-09-20T14:22:48.894Z,54.08
2022-09-20T14:25:16.451Z,55.64
2022-09-20T14:27:44.444Z,56.50
2022-09-20T14:30:32.706Z,57.87
2022-09-20T14:33:01.006Z,57.39
2022-09-20T14:35:29.038Z,58.36
2022-09-20T14:38:07.036Z,58.74
2022-09-20T14:40:45.539Z,56.75
2022-09-20T14:43:34.669Z,55.98
2022-09-20T14:46:15.618Z,54.10
2022-09-20T14:48:45.478Z,52.90
2022-09-20T14:51:16.369Z,53.25
2022-09-20T14:53:52.744Z,53.43
2022-09-20T14:56:35.571Z,53.50
2022-09-20T14:59:07.647Z,53.50
2022-09-20T15:01:41.152Z,53.58
2022-09-20T15:04:21.531Z,53.52
2022-09-20T15:06:50.944Z,53.87
2022-09-20T15:09:21.072Z,54.08
2022-09-20T15:12:01.117Z,54.37
2022-09-20T15:14:29.812Z,54.54
2022-09-20T15:17:00.785Z,54.57
2022-09-20T15:19:30.502Z,54.64
2022-09-20T15:21:59.453Z,54.07
2022-09-20T15:24:27.565Z,53.44
2022-09-20T15:26:55.131Z,53.66
2022-09-20T15:29:22.961Z,53.02
2022-09-20T15:31:50.589Z,52.40
2022-09-20T15:34:18.902Z,53.91
2022-09-20T15:36:46.790Z,54.18
2022-09-20T15:39:14.659Z,54.68
2022-09-20T15:41:43.869Z,53.83
2022-09-20T15:44:11.569Z,54.58
2022-09-20T15:46:39.169Z,54.52
2022-09-20T15:49:08.973Z,54.38
2022-09-20T15:51:39.114Z,54.93
2022-09-20T15:54:07.947Z,55.42
2022-09-20T15:56:37.771Z,55.89
2022-09-20T15:59:08.741Z,55.35
2022-09-20T16:01:42.472Z,55.62
2022-09-20T16:04:15.714Z,54.71
2022-09-20T16:06:45.586Z,54.02
2022-09-20T16:09:14.035Z,53.18
2022-09-20T16:11:41.907Z,53.10
2022-09-20T16:14:09.559Z,53.37
2022-09-20T16:16:40.346Z,53.92
2022-09-20T16:19:21.011Z,54.18
2022-09-20T16:21:58.268Z,54.70
2022-09-20T16:24:34.011Z,55.06
2022-09-20T16:27:06.277Z,56.12
2022-09-20T16:29:34.653Z,56.69
2022-09-20T16:32:03.724Z,56.79
2022-09-20T16:34:35.228Z,57.26
2022-09-20T16:37:15.884Z,57.42
2022-09-20T16:39:44.466Z,57.74
2022-09-20T16:42:13.310Z,57.95
2022-09-20T16:44:43.027Z,58.45
2022-09-20T16:47:18.740Z,58.90
2022-09-20T16:49:47.293Z,58.88
2022-09-20T16:52:15.205Z,59.15
2022-09-20T16:54:42.843Z,59.36
2022-09-20T16:57:10.777Z,60.14
2022-09-20T16:59:38.552Z,60.67
2022-09-20T17:02:06.560Z,61.10
2022-09-20T17:04:34.095Z,61.44
2022-09-20T17:07:02.271Z,61.98
2022-09-20T17:09:29.906Z,62.66
2022-09-20T17:11:57.446Z,62.85
2022-09-20T17:14:25.781Z,63.65
2022-09-20T17:16:53.425Z,63.79
2022-09-20T17:19:21.325Z,64.09
2022-09-20T17:21:50.883Z,63.62
2022-09-20T17:24:20.335Z,63.94
2022-09-20T17:26:49.006Z,64.51
2022-09-20T17:29:19.034Z,64.87
2022-09-20T17:31:54.979Z,65.25
2022-09-20T17:34:24.728Z,65.41
2022-09-20T17:36:55.165Z,65.24
2022-09-20T17:39:25.387Z,65.89
2022-09-20T17:41:53.592Z,65.62
2022-09-20T17:44:21.495Z,65.49
2022-09-20T17:46:51.538Z,65.46
2022-09-20T17:49:22.362Z,65.90
2022-09-20T17:51:52.678Z,65.47
2022-09-20T17:54:21.995Z,65.68
2022-09-20T17:56:52.358Z,65.49
2022-09-20T17:59:20.859Z,64.73
2022-09-20T18:01:51.073Z,64.64
2022-09-20T18:04:21.268Z,64.17
2022-09-20T18:06:52.955Z,64.08
2022-09-20T18:09:24.221Z,64.27
2022-09-20T18:11:54.974Z,64.45
2022-09-20T18:14:28.051Z,64.19
2022-09-20T18:17:01.130Z,64.15
2022-09-20T18:19:33.834Z,64.04
2022-09-20T18:22:02.894Z,63.89
2022-09-20T18:24:30.887Z,64.33
2022-09-20T18:27:00.719Z,64.06
2022-09-20T18:29:29.505Z,64.28
2022-09-20T18:31:59.707Z,64.64
2022-09-20T18:34:32.094Z,65.17
2022-09-20T18:37:01.348Z,65.23
2022-09-20T18:39:35.171Z,65.33
2022-09-20T18:42:03.889Z,65.77
2022-09-20T18:44:34.344Z,65.81
2022-09-20T18:47:04.994Z,66.29
2022-09-20T18:49:36.748Z,66.61
2022-09-20T18:52:04.825Z,67.37
2022-09-20T18:54:33.577Z,67.88
2022-09-20T18:57:02.210Z,68.23
2022-09-20T18:59:30.312Z,68.34
2022-09-20T19:02:35.322Z,68.99
2022-09-20T19:05:23.714Z,69.79
2022-09-20T19:08:34.502Z,70.55
2022-09-20T19:11:12.076Z,71.21
2022-09-20T19:14:07.176Z,71.72
2022-09-20T19:16:37.040Z,71.94
2022-09-20T19:19:45.567Z,72.43
2022-09-20T19:22:19.988Z,72.55
2022-09-20T19:25:25.247Z,73.17
2022-09-20T19:27:53.728Z,73.22
2022-09-20T19:30:22.757Z,73.27
2022-09-20T19:32:51.014Z,73.22
2022-09-20T19:35:35.967Z,73.70
2022-09-20T19:38:35.248Z,73.80
2022-09-20T19:41:39.710Z,73.24
2022-09-20T19:44:29.803Z,72.97
2022-09-20T19:47:01.952Z,72.35
2022-09-20T19:49:40.845Z,73.48
2022-09-20T19:52:13.044Z,73.76
2022-09-20T19:54:46.268Z,74.14
2022-09-20T19:57:29.062Z,74.68
2022-09-20T19:59:57.943Z,74.74
2022-09-20T20:02:26.117Z,74.97
2022-09-20T20:04:54.090Z,75.18
2022-09-20T20:07:40.512Z,76.01
2022-09-20T20:10:23.730Z,76.67
2022-09-20T20:13:03.100Z,76.29
2022-09-20T20:15:53.139Z,76.96
2022-09-20T20:18:51.005Z,77.56
2022-09-20T20:21:35.464Z,77.90
2022-09-20T20:24:09.410Z,78.03
2022-09-20T20:26:37.259Z,78.09
2022-09-20T20:29:05.002Z,78.07
2022-09-20T20:31:33.086Z,78.52
2022-09-20T20:34:00.996Z,78.44
2022-09-20T20:36:28.599Z,78.13
2022-09-20T20:38:56.777Z,78.59
2022-09-20T20:41:24.718Z,78.33
2022-09-20T20:43:57.280Z,78.67
2022-09-20T20:46:26.027Z,79.04
2022-09-20T20:48:54.056Z,80.01
2022-09-20T20:51:23.406Z,79.89
2022-09-20T20:53:55.592Z,79.96
2022-09-20T20:56:29.916Z,80.53
2022-09-20T20:59:02.110Z,80.71
2022-09-20T21:01:36.329Z,80.62
2022-09-20T21:04:07.884Z,80.19
2022-09-20T21:06:38.202Z,80.34
2022-09-20T21:09:07.349Z,80.81
2022-09-20T21:11:44.449Z,80.51
2022-09-20T21:14:12.903Z,80.60
2022-09-20T21:16:43.358Z,80.33
2022-09-20T21:19:15.684Z,80.34
2022-09-20T21:21:47.176Z,80.62
2022-09-20T21:24:17.433Z,80.88
2022-09-20T21:26:49.018Z,80.54
2022-09-20T21:29:17.085Z,80.51
2022-09-20T21:31:47.248Z,80.36
2022-09-20T21:34:16.218Z,80.99
2022-09-20T21:36:47.208Z,80.74
2022-09-20T21:39:15.022Z,80.92
2022-09-20T21:41:42.936Z,81.37
2022-09-20T21:44:11.602Z,81.12
2022-09-20T21:46:41.690Z,81.02
2022-09-20T21:49:11.874Z,80.44
2022-09-20T21:51:45.268Z,80.72
2022-09-20T21:54:13.164Z,80.88
2022-09-20T21:56:41.503Z,80.41
2022-09-20T21:59:09.516Z,80.37
2022-09-20T22:01:40.349Z,81.02
2022-09-20T22:04:10.828Z,80.96
2022-09-20T22:06:46.361Z,81.29
2022-09-20T22:09:17.030Z,80.93
2022-09-20T22:11:49.037Z,80.81
2022-09-20T22:14:19.630Z,79.90
2022-09-20T22:16:51.282Z,79.67
2022-09-20T22:19:19.294Z,78.72
2022-09-20T22:21:49.956Z,79.14
2022-09-20T22:24:19.001Z,79.35
2022-09-20T22:26:49.643Z,79.09
2022-09-20T22:29:19.115Z,80.02
2022-09-20T22:31:50.360Z,80.40
2022-09-20T22:34:21.766Z,80.88
2022-09-20T22:36:50.666Z,81.00
2022-09-20T22:39:18.853Z,81.29
2022-09-20T22:41:48.021Z,81.68
2022-09-20T22:44:16.036Z,82.15
2022-09-20T22:46:43.585Z,82.38
2022-09-20T22:49:11.115Z,83.09
2022-09-20T22:51:39.222Z,83.69
2022-09-20T22:54:10.569Z,84.10
2022-09-20T22:56:41.261Z,83.39
2022-09-20T22:59:12.514Z,82.45
2022-09-20T23:01:45.724Z,83.83
2022-09-20T23:04:20.165Z,84.09
2022-09-20T23:06:55.041Z,84.26
2022-09-20T23:09:26.446Z,83.82
2022-09-20T23:11:54.097Z,84.22
2022-09-20T23:14:23.412Z,84.53
2022-09-20T23:16:51.482Z,84.44
2022-09-20T23:19:19.057Z,85.13
2022-09-20T23:21:46.654Z,85.33
2022-09-20T23:24:16.623Z,85.54
2022-09-20T23:26:45.309Z,85.80
2022-09-20T23:29:16.061Z,85.52
2022-09-20T23:31:47.256Z,85.51
2022-09-20T23:34:17.372Z,84.84
2022-09-20T23:36:45.682Z,84.36
2022-09-20T23:39:13.836Z,84.89
2022-09-20T23:41:42.227Z,85.94
2022-09-20T23:44:11.814Z,85.68
2022-09-20T23:46:39.638Z,85.92
2022-09-20T23:49:09.366Z,85.27
2022-09-20T23:51:37.747Z,85.99
2022-09-20T23:54:05.677Z,85.98
2022-09-20T23:56:33.778Z,86.04
2022-09-20T23:59:01.588Z,85.21
